sensor_id;sensor_type;location;lat;lon;timestamp;temperature;humidity
7738;DHT22;29398;45.328;5.558;2024-03-02T00:01:02;6.60;95.30
7738;DHT22;29398;45.328;5.558;2024-03-02T00:02:05;6.70;95.40
7738;DHT22;29398;45.328;5.558;2024-03-02T00:03:08;6.70;95.30
7738;DHT22;29398;45.328;5.558;2024-03-02T00:04:10;6.70;95.60
7738;DHT22;29398;45.328;5.558;2024-03-02T00:05:12;6.70;95.40
7738;DHT22;29398;45.328;5.558;2024-03-02T00:06:20;6.70;95.40
7738;DHT22;29398;45.328;5.558;2024-03-02T00:07:23;6.70;95.40
7738;DHT22;29398;45.328;5.558;2024-03-02T00:08:25;6.70;95.40
7738;DHT22;29398;45.328;5.558;2024-03-02T00:09:28;6.70;95.30
7738;DHT22;29398;45.328;5.558;2024-03-02T00:10:36;6.60;95.60
7738;DHT22;29398;45.328;5.558;2024-03-02T00:11:40;6.70;95.30
7738;DHT22;29398;45.328;5.558;2024-03-02T00:12:43;6.60;95.40
7738;DHT22;29398;45.328;5.558;2024-03-02T00:13:45;6.60;95.40
7738;DHT22;29398;45.328;5.558;2024-03-02T00:14:47;6.60;95.40
7738;DHT22;29398;45.328;5.558;2024-03-02T00:15:51;6.60;95.50
7738;DHT22;29398;45.328;5.558;2024-03-02T00:16:52;6.70;95.50
7738;DHT22;29398;45.328;5.558;2024-03-02T00:17:56;6.60;95.50
7738;DHT22;29398;45.328;5.558;2024-03-02T00:19:01;6.60;95.60
7738;DHT22;29398;45.328;5.558;2024-03-02T00:20:03;6.60;96.20
7738;DHT22;29398;45.328;5.558;2024-03-02T00:21:10;6.60;96.00
7738;DHT22;29398;45.328;5.558;2024-03-02T00:22:13;6.60;95.90
7738;DHT22;29398;45.328;5.558;2024-03-02T00:23:15;6.60;95.80
7738;DHT22;29398;45.328;5.558;2024-03-02T00:24:19;6.60;95.90
7738;DHT22;29398;45.328;5.558;2024-03-02T00:25:22;6.60;95.90
7738;DHT22;29398;45.328;5.558;2024-03-02T00:26:23;6.60;95.90
7738;DHT22;29398;45.328;5.558;2024-03-02T00:27:24;6.60;95.90
7738;DHT22;29398;45.328;5.558;2024-03-02T00:28:27;6.70;95.90
7738;DHT22;29398;45.328;5.558;2024-03-02T00:29:29;6.60;96.20
7738;DHT22;29398;45.328;5.558;2024-03-02T00:30:45;6.60;96.00
7738;DHT22;29398;45.328;5.558;2024-03-02T00:31:51;6.60;96.00
7738;DHT22;29398;45.328;5.558;2024-03-02T00:32:54;6.60;96.10
7738;DHT22;29398;45.328;5.558;2024-03-02T00:33:55;6.70;96.60
7738;DHT22;29398;45.328;5.558;2024-03-02T00:34:57;6.60;96.40
7738;DHT22;29398;45.328;5.558;2024-03-02T00:35:58;6.60;96.30
7738;DHT22;29398;45.328;5.558;2024-03-02T00:37:00;6.60;96.30
7738;DHT22;29398;45.328;5.558;2024-03-02T00:38:05;6.60;96.30
7738;DHT22;29398;45.328;5.558;2024-03-02T00:39:06;6.60;96.20
7738;DHT22;29398;45.328;5.558;2024-03-02T00:40:10;6.60;96.20
7738;DHT22;29398;45.328;5.558;2024-03-02T00:41:17;6.60;96.00
7738;DHT22;29398;45.328;5.558;2024-03-02T00:42:20;6.50;96.10
7738;DHT22;29398;45.328;5.558;2024-03-02T00:43:41;6.50;96.20
7738;DHT22;29398;45.328;5.558;2024-03-02T00:44:42;6.50;96.30
7738;DHT22;29398;45.328;5.558;2024-03-02T00:45:44;6.50;96.90
7738;DHT22;29398;45.328;5.558;2024-03-02T00:46:45;6.50;96.50
7738;DHT22;29398;45.328;5.558;2024-03-02T00:47:46;6.50;96.40
7738;DHT22;29398;45.328;5.558;2024-03-02T00:48:53;6.60;96.40
7738;DHT22;29398;45.328;5.558;2024-03-02T00:49:55;6.50;96.30
7738;DHT22;29398;45.328;5.558;2024-03-02T00:50:57;6.60;96.30
7738;DHT22;29398;45.328;5.558;2024-03-02T00:51:59;6.60;96.30
7738;DHT22;29398;45.328;5.558;2024-03-02T00:53:02;6.50;96.20
7738;DHT22;29398;45.328;5.558;2024-03-02T00:54:07;6.60;96.20
7738;DHT22;29398;45.328;5.558;2024-03-02T00:55:09;6.60;96.20
7738;DHT22;29398;45.328;5.558;2024-03-02T00:56:11;6.60;96.30
7738;DHT22;29398;45.328;5.558;2024-03-02T00:57:12;6.60;96.30
7738;DHT22;29398;45.328;5.558;2024-03-02T00:58:15;6.60;96.20
7738;DHT22;29398;45.328;5.558;2024-03-02T00:59:16;6.60;96.30
7738;DHT22;29398;45.328;5.558;2024-03-02T01:00:19;6.60;96.60
7738;DHT22;29398;45.328;5.558;2024-03-02T01:01:20;6.50;96.60
7738;DHT22;29398;45.328;5.558;2024-03-02T01:02:22;6.50;96.50
7738;DHT22;29398;45.328;5.558;2024-03-02T01:03:24;6.50;96.50
7738;DHT22;29398;45.328;5.558;2024-03-02T01:04:24;6.50;96.50
7738;DHT22;29398;45.328;5.558;2024-03-02T01:05:26;6.50;96.50
7738;DHT22;29398;45.328;5.558;2024-03-02T01:06:28;6.50;96.60
7738;DHT22;29398;45.328;5.558;2024-03-02T01:07:30;6.50;96.60
7738;DHT22;29398;45.328;5.558;2024-03-02T01:08:31;6.50;96.60
7738;DHT22;29398;45.328;5.558;2024-03-02T01:09:35;6.50;97.10
7738;DHT22;29398;45.328;5.558;2024-03-02T01:10:36;6.50;97.50
7738;DHT22;29398;45.328;5.558;2024-03-02T01:11:38;6.40;97.50
7738;DHT22;29398;45.328;5.558;2024-03-02T01:12:39;6.40;97.60
7738;DHT22;29398;45.328;5.558;2024-03-02T01:13:41;6.40;97.80
7738;DHT22;29398;45.328;5.558;2024-03-02T01:14:42;6.40;97.50
7738;DHT22;29398;45.328;5.558;2024-03-02T01:15:44;6.40;97.50
7738;DHT22;29398;45.328;5.558;2024-03-02T01:16:45;6.50;97.50
7738;DHT22;29398;45.328;5.558;2024-03-02T01:17:46;6.50;97.70
7738;DHT22;29398;45.328;5.558;2024-03-02T01:18:48;6.50;97.80
7738;DHT22;29398;45.328;5.558;2024-03-02T01:19:49;6.50;97.70
7738;DHT22;29398;45.328;5.558;2024-03-02T01:20:51;6.40;97.80
7738;DHT22;29398;45.328;5.558;2024-03-02T01:21:52;6.40;97.70
7738;DHT22;29398;45.328;5.558;2024-03-02T01:22:54;6.40;97.70
7738;DHT22;29398;45.328;5.558;2024-03-02T01:23:56;6.50;97.70
7738;DHT22;29398;45.328;5.558;2024-03-02T01:24:58;6.50;97.70
7738;DHT22;29398;45.328;5.558;2024-03-02T01:26:00;6.50;97.60
7738;DHT22;29398;45.328;5.558;2024-03-02T01:27:01;6.50;97.60
7738;DHT22;29398;45.328;5.558;2024-03-02T01:28:04;6.60;97.70
7738;DHT22;29398;45.328;5.558;2024-03-02T01:29:05;6.60;97.60
7738;DHT22;29398;45.328;5.558;2024-03-02T01:30:08;6.60;97.70
7738;DHT22;29398;45.328;5.558;2024-03-02T01:31:09;6.60;97.70
7738;DHT22;29398;45.328;5.558;2024-03-02T01:32:11;6.60;97.70
7738;DHT22;29398;45.328;5.558;2024-03-02T01:33:13;6.60;97.70
7738;DHT22;29398;45.328;5.558;2024-03-02T01:34:14;6.70;97.70
7738;DHT22;29398;45.328;5.558;2024-03-02T01:35:16;6.70;97.70
7738;DHT22;29398;45.328;5.558;2024-03-02T01:36:17;6.70;97.70
7738;DHT22;29398;45.328;5.558;2024-03-02T01:37:19;6.70;97.70
7738;DHT22;29398;45.328;5.558;2024-03-02T01:38:20;6.70;97.70
7738;DHT22;29398;45.328;5.558;2024-03-02T01:39:22;6.70;97.70
7738;DHT22;29398;45.328;5.558;2024-03-02T01:40:24;6.70;97.70
7738;DHT22;29398;45.328;5.558;2024-03-02T01:41:27;6.80;97.80
7738;DHT22;29398;45.328;5.558;2024-03-02T01:42:29;6.70;97.40
7738;DHT22;29398;45.328;5.558;2024-03-02T01:43:31;6.70;97.30
7738;DHT22;29398;45.328;5.558;2024-03-02T01:44:33;6.60;97.40
7738;DHT22;29398;45.328;5.558;2024-03-02T01:45:34;6.60;97.20
7738;DHT22;29398;45.328;5.558;2024-03-02T01:46:38;6.30;97.30
7738;DHT22;29398;45.328;5.558;2024-03-02T01:47:39;6.60;97.50
7738;DHT22;29398;45.328;5.558;2024-03-02T01:48:41;6.60;97.50
7738;DHT22;29398;45.328;5.558;2024-03-02T01:49:42;6.50;97.60
7738;DHT22;29398;45.328;5.558;2024-03-02T01:50:43;6.50;97.70
7738;DHT22;29398;45.328;5.558;2024-03-02T01:51:45;6.60;97.80
7738;DHT22;29398;45.328;5.558;2024-03-02T01:52:46;6.60;97.80
7738;DHT22;29398;45.328;5.558;2024-03-02T01:53:48;6.60;97.90
7738;DHT22;29398;45.328;5.558;2024-03-02T01:54:49;6.60;97.90
7738;DHT22;29398;45.328;5.558;2024-03-02T01:55:52;6.60;97.70
7738;DHT22;29398;45.328;5.558;2024-03-02T01:56:54;6.70;97.60
7738;DHT22;29398;45.328;5.558;2024-03-02T01:57:55;6.70;97.80
7738;DHT22;29398;45.328;5.558;2024-03-02T01:58:56;6.70;97.90
7738;DHT22;29398;45.328;5.558;2024-03-02T01:59:58;6.70;97.70
7738;DHT22;29398;45.328;5.558;2024-03-02T02:01:00;6.70;97.70
7738;DHT22;29398;45.328;5.558;2024-03-02T02:02:02;6.70;97.80
7738;DHT22;29398;45.328;5.558;2024-03-02T02:03:03;6.70;97.90
7738;DHT22;29398;45.328;5.558;2024-03-02T02:04:05;6.70;98.00
7738;DHT22;29398;45.328;5.558;2024-03-02T02:05:07;6.70;98.00
7738;DHT22;29398;45.328;5.558;2024-03-02T02:06:10;6.80;98.00
7738;DHT22;29398;45.328;5.558;2024-03-02T02:07:11;6.80;98.10
7738;DHT22;29398;45.328;5.558;2024-03-02T02:08:15;6.80;98.10
7738;DHT22;29398;45.328;5.558;2024-03-02T02:09:15;6.70;98.20
7738;DHT22;29398;45.328;5.558;2024-03-02T02:10:19;6.60;98.10
7738;DHT22;29398;45.328;5.558;2024-03-02T02:11:21;6.60;97.50
7738;DHT22;29398;45.328;5.558;2024-03-02T02:12:22;6.50;97.80
7738;DHT22;29398;45.328;5.558;2024-03-02T02:13:24;6.40;97.80
7738;DHT22;29398;45.328;5.558;2024-03-02T02:14:25;6.50;98.10
7738;DHT22;29398;45.328;5.558;2024-03-02T02:15:29;6.50;98.10
7738;DHT22;29398;45.328;5.558;2024-03-02T02:16:30;6.50;97.80
7738;DHT22;29398;45.328;5.558;2024-03-02T02:17:32;6.50;97.50
7738;DHT22;29398;45.328;5.558;2024-03-02T02:18:33;6.50;97.60
7738;DHT22;29398;45.328;5.558;2024-03-02T02:19:34;6.50;97.70
7738;DHT22;29398;45.328;5.558;2024-03-02T02:20:36;6.40;97.70
7738;DHT22;29398;45.328;5.558;2024-03-02T02:21:42;6.40;98.00
7738;DHT22;29398;45.328;5.558;2024-03-02T02:22:56;6.40;97.80
7738;DHT22;29398;45.328;5.558;2024-03-02T02:23:57;6.40;97.90
7738;DHT22;29398;45.328;5.558;2024-03-02T02:24:59;6.30;98.00
7738;DHT22;29398;45.328;5.558;2024-03-02T02:26:00;6.30;98.00
7738;DHT22;29398;45.328;5.558;2024-03-02T02:27:01;6.20;98.30
7738;DHT22;29398;45.328;5.558;2024-03-02T02:28:03;6.20;98.50
7738;DHT22;29398;45.328;5.558;2024-03-02T02:29:04;6.30;98.60
7738;DHT22;29398;45.328;5.558;2024-03-02T02:30:06;6.30;98.70
7738;DHT22;29398;45.328;5.558;2024-03-02T02:31:09;6.30;98.70
7738;DHT22;29398;45.328;5.558;2024-03-02T02:32:10;6.30;98.70
7738;DHT22;29398;45.328;5.558;2024-03-02T02:33:11;6.40;98.70
7738;DHT22;29398;45.328;5.558;2024-03-02T02:34:14;6.40;98.70
7738;DHT22;29398;45.328;5.558;2024-03-02T02:35:16;6.40;98.60
7738;DHT22;29398;45.328;5.558;2024-03-02T02:36:17;6.50;98.60
7738;DHT22;29398;45.328;5.558;2024-03-02T02:37:20;6.50;98.60
7738;DHT22;29398;45.328;5.558;2024-03-02T02:38:21;6.50;98.70
7738;DHT22;29398;45.328;5.558;2024-03-02T02:39:23;6.40;98.90
7738;DHT22;29398;45.328;5.558;2024-03-02T02:40:24;6.40;98.80
7738;DHT22;29398;45.328;5.558;2024-03-02T02:41:25;6.30;98.80
7738;DHT22;29398;45.328;5.558;2024-03-02T02:42:27;6.30;99.10
7738;DHT22;29398;45.328;5.558;2024-03-02T02:43:28;6.30;99.10
7738;DHT22;29398;45.328;5.558;2024-03-02T02:44:30;6.20;98.70
7738;DHT22;29398;45.328;5.558;2024-03-02T02:45:31;6.20;98.80
7738;DHT22;29398;45.328;5.558;2024-03-02T02:46:33;6.20;98.80
7738;DHT22;29398;45.328;5.558;2024-03-02T02:47:34;6.20;98.90
7738;DHT22;29398;45.328;5.558;2024-03-02T02:48:35;6.20;98.90
7738;DHT22;29398;45.328;5.558;2024-03-02T02:49:38;6.30;98.90
7738;DHT22;29398;45.328;5.558;2024-03-02T02:50:39;6.30;98.90
7738;DHT22;29398;45.328;5.558;2024-03-02T02:51:41;6.30;98.80
7738;DHT22;29398;45.328;5.558;2024-03-02T02:52:43;6.40;98.80
7738;DHT22;29398;45.328;5.558;2024-03-02T02:53:45;6.40;98.70
7738;DHT22;29398;45.328;5.558;2024-03-02T02:54:46;6.40;98.60
7738;DHT22;29398;45.328;5.558;2024-03-02T02:55:48;6.50;98.60
7738;DHT22;29398;45.328;5.558;2024-03-02T02:56:49;6.50;98.50
7738;DHT22;29398;45.328;5.558;2024-03-02T02:57:51;6.40;98.60
7738;DHT22;29398;45.328;5.558;2024-03-02T02:58:52;6.40;98.70
7738;DHT22;29398;45.328;5.558;2024-03-02T02:59:54;6.40;98.80
7738;DHT22;29398;45.328;5.558;2024-03-02T03:00:55;6.40;98.90
7738;DHT22;29398;45.328;5.558;2024-03-02T03:01:57;6.40;99.00
7738;DHT22;29398;45.328;5.558;2024-03-02T03:02:58;6.40;99.10
7738;DHT22;29398;45.328;5.558;2024-03-02T03:04:00;6.50;99.10
7738;DHT22;29398;45.328;5.558;2024-03-02T03:05:01;6.50;99.20
7738;DHT22;29398;45.328;5.558;2024-03-02T03:06:02;6.50;99.10
7738;DHT22;29398;45.328;5.558;2024-03-02T03:07:04;6.50;99.20
7738;DHT22;29398;45.328;5.558;2024-03-02T03:08:07;6.50;99.10
7738;DHT22;29398;45.328;5.558;2024-03-02T03:09:08;6.50;99.10
7738;DHT22;29398;45.328;5.558;2024-03-02T03:10:11;6.60;99.10
7738;DHT22;29398;45.328;5.558;2024-03-02T03:11:14;6.60;99.10
7738;DHT22;29398;45.328;5.558;2024-03-02T03:12:15;6.60;99.20
7738;DHT22;29398;45.328;5.558;2024-03-02T03:13:17;6.60;99.30
7738;DHT22;29398;45.328;5.558;2024-03-02T03:14:18;6.70;99.60
7738;DHT22;29398;45.328;5.558;2024-03-02T03:15:20;6.70;99.50
7738;DHT22;29398;45.328;5.558;2024-03-02T03:16:21;6.80;99.60
7738;DHT22;29398;45.328;5.558;2024-03-02T03:17:23;6.80;99.70
7738;DHT22;29398;45.328;5.558;2024-03-02T03:18:24;6.90;99.60
7738;DHT22;29398;45.328;5.558;2024-03-02T03:19:26;6.90;99.80
7738;DHT22;29398;45.328;5.558;2024-03-02T03:20:27;6.90;99.50
7738;DHT22;29398;45.328;5.558;2024-03-02T03:21:29;6.90;99.50
7738;DHT22;29398;45.328;5.558;2024-03-02T03:22:30;6.90;99.50
7738;DHT22;29398;45.328;5.558;2024-03-02T03:23:33;6.90;99.60
7738;DHT22;29398;45.328;5.558;2024-03-02T03:24:35;7.00;99.70
7738;DHT22;29398;45.328;5.558;2024-03-02T03:25:36;7.00;99.80
7738;DHT22;29398;45.328;5.558;2024-03-02T03:26:38;7.10;99.80
7738;DHT22;29398;45.328;5.558;2024-03-02T03:27:40;7.10;99.70
7738;DHT22;29398;45.328;5.558;2024-03-02T03:28:42;7.10;99.70
7738;DHT22;29398;45.328;5.558;2024-03-02T03:29:43;7.10;99.40
7738;DHT22;29398;45.328;5.558;2024-03-02T03:30:44;7.10;99.50
7738;DHT22;29398;45.328;5.558;2024-03-02T03:31:46;7.20;99.40
7738;DHT22;29398;45.328;5.558;2024-03-02T03:32:47;7.20;99.50
7738;DHT22;29398;45.328;5.558;2024-03-02T03:33:49;7.20;99.50
7738;DHT22;29398;45.328;5.558;2024-03-02T03:34:51;7.20;99.60
7738;DHT22;29398;45.328;5.558;2024-03-02T03:35:52;7.30;99.50
7738;DHT22;29398;45.328;5.558;2024-03-02T03:36:54;7.30;99.50
7738;DHT22;29398;45.328;5.558;2024-03-02T03:37:55;7.20;99.10
7738;DHT22;29398;45.328;5.558;2024-03-02T03:38:57;7.20;99.30
7738;DHT22;29398;45.328;5.558;2024-03-02T03:39:59;7.30;99.40
7738;DHT22;29398;45.328;5.558;2024-03-02T03:41:00;7.30;99.20
7738;DHT22;29398;45.328;5.558;2024-03-02T03:42:02;7.30;99.30
7738;DHT22;29398;45.328;5.558;2024-03-02T03:43:03;7.30;99.40
7738;DHT22;29398;45.328;5.558;2024-03-02T03:44:04;7.30;99.60
7738;DHT22;29398;45.328;5.558;2024-03-02T03:45:07;7.40;99.70
7738;DHT22;29398;45.328;5.558;2024-03-02T03:46:08;7.40;99.70
7738;DHT22;29398;45.328;5.558;2024-03-02T03:47:10;7.40;99.70
7738;DHT22;29398;45.328;5.558;2024-03-02T03:48:11;7.40;99.60
7738;DHT22;29398;45.328;5.558;2024-03-02T03:49:13;7.50;99.40
7738;DHT22;29398;45.328;5.558;2024-03-02T03:50:14;7.50;98.90
7738;DHT22;29398;45.328;5.558;2024-03-02T03:51:15;7.50;98.80
7738;DHT22;29398;45.328;5.558;2024-03-02T03:52:17;7.50;98.60
7738;DHT22;29398;45.328;5.558;2024-03-02T03:53:18;7.50;98.90
7738;DHT22;29398;45.328;5.558;2024-03-02T03:54:21;7.50;99.00
7738;DHT22;29398;45.328;5.558;2024-03-02T03:55:22;7.60;99.00
7738;DHT22;29398;45.328;5.558;2024-03-02T03:56:24;7.50;98.50
7738;DHT22;29398;45.328;5.558;2024-03-02T03:57:25;7.60;98.70
7738;DHT22;29398;45.328;5.558;2024-03-02T03:58:28;7.60;98.60
7738;DHT22;29398;45.328;5.558;2024-03-02T03:59:28;7.60;98.60
7738;DHT22;29398;45.328;5.558;2024-03-02T04:00:29;7.60;98.50
7738;DHT22;29398;45.328;5.558;2024-03-02T04:01:32;7.60;98.70
7738;DHT22;29398;45.328;5.558;2024-03-02T04:02:33;7.60;98.60
7738;DHT22;29398;45.328;5.558;2024-03-02T04:03:36;7.60;98.60
7738;DHT22;29398;45.328;5.558;2024-03-02T04:04:37;7.70;98.80
7738;DHT22;29398;45.328;5.558;2024-03-02T04:05:39;7.70;98.90
7738;DHT22;29398;45.328;5.558;2024-03-02T04:06:40;7.70;98.60
7738;DHT22;29398;45.328;5.558;2024-03-02T04:07:42;7.70;98.50
7738;DHT22;29398;45.328;5.558;2024-03-02T04:08:43;7.60;98.00
7738;DHT22;29398;45.328;5.558;2024-03-02T04:09:47;7.30;98.00
7738;DHT22;29398;45.328;5.558;2024-03-02T04:10:48;7.20;98.70
7738;DHT22;29398;45.328;5.558;2024-03-02T04:11:50;7.10;99.00
7738;DHT22;29398;45.328;5.558;2024-03-02T04:12:51;7.10;99.20
7738;DHT22;29398;45.328;5.558;2024-03-02T04:13:53;7.20;99.20
7738;DHT22;29398;45.328;5.558;2024-03-02T04:14:54;7.20;99.30
7738;DHT22;29398;45.328;5.558;2024-03-02T04:15:55;7.20;99.00
7738;DHT22;29398;45.328;5.558;2024-03-02T04:16:57;7.20;99.10
7738;DHT22;29398;45.328;5.558;2024-03-02T04:17:58;7.10;99.00
7738;DHT22;29398;45.328;5.558;2024-03-02T04:19:00;7.10;99.20
7738;DHT22;29398;45.328;5.558;2024-03-02T04:20:01;7.00;98.90
7738;DHT22;29398;45.328;5.558;2024-03-02T04:21:05;6.80;99.20
7738;DHT22;29398;45.328;5.558;2024-03-02T04:22:07;6.80;99.70
7738;DHT22;29398;45.328;5.558;2024-03-02T04:23:08;6.80;99.80
7738;DHT22;29398;45.328;5.558;2024-03-02T04:24:10;6.80;99.70
7738;DHT22;29398;45.328;5.558;2024-03-02T04:25:12;6.70;99.70
7738;DHT22;29398;45.328;5.558;2024-03-02T04:26:14;6.70;99.80
7738;DHT22;29398;45.328;5.558;2024-03-02T04:27:16;6.70;99.90
7738;DHT22;29398;45.328;5.558;2024-03-02T04:28:16;6.70;99.90
7738;DHT22;29398;45.328;5.558;2024-03-02T04:29:18;6.70;99.90
7738;DHT22;29398;45.328;5.558;2024-03-02T04:30:19;6.60;99.90
7738;DHT22;29398;45.328;5.558;2024-03-02T04:31:22;6.40;99.90
7738;DHT22;29398;45.328;5.558;2024-03-02T04:32:23;6.40;99.90
7738;DHT22;29398;45.328;5.558;2024-03-02T04:33:25;6.40;99.90
7738;DHT22;29398;45.328;5.558;2024-03-02T04:34:26;6.40;99.90
7738;DHT22;29398;45.328;5.558;2024-03-02T04:35:28;6.40;99.90
7738;DHT22;29398;45.328;5.558;2024-03-02T04:36:29;6.50;99.90
7738;DHT22;29398;45.328;5.558;2024-03-02T04:37:32;6.50;99.90
7738;DHT22;29398;45.328;5.558;2024-03-02T04:38:33;6.60;99.90
7738;DHT22;29398;45.328;5.558;2024-03-02T04:39:36;6.60;99.90
7738;DHT22;29398;45.328;5.558;2024-03-02T04:40:38;6.70;99.90
7738;DHT22;29398;45.328;5.558;2024-03-02T04:41:40;6.70;99.90
7738;DHT22;29398;45.328;5.558;2024-03-02T04:42:41;6.70;99.90
7738;DHT22;29398;45.328;5.558;2024-03-02T04:43:43;6.80;99.90
7738;DHT22;29398;45.328;5.558;2024-03-02T04:44:44;6.80;99.90
7738;DHT22;29398;45.328;5.558;2024-03-02T04:45:46;6.80;99.90
7738;DHT22;29398;45.328;5.558;2024-03-02T04:46:47;6.70;99.90
7738;DHT22;29398;45.328;5.558;2024-03-02T04:47:49;6.80;99.90
7738;DHT22;29398;45.328;5.558;2024-03-02T04:48:50;6.80;99.90
7738;DHT22;29398;45.328;5.558;2024-03-02T04:49:56;6.80;99.90
7738;DHT22;29398;45.328;5.558;2024-03-02T04:50:57;6.80;99.90
7738;DHT22;29398;45.328;5.558;2024-03-02T04:51:59;6.80;99.90
7738;DHT22;29398;45.328;5.558;2024-03-02T04:53:00;6.80;99.90
7738;DHT22;29398;45.328;5.558;2024-03-02T04:54:01;6.80;99.90
7738;DHT22;29398;45.328;5.558;2024-03-02T04:55:03;6.70;99.90
7738;DHT22;29398;45.328;5.558;2024-03-02T04:56:19;6.70;99.90
7738;DHT22;29398;45.328;5.558;2024-03-02T04:57:39;6.80;99.90
7738;DHT22;29398;45.328;5.558;2024-03-02T04:58:41;6.80;99.90
7738;DHT22;29398;45.328;5.558;2024-03-02T04:59:42;6.70;99.90
7738;DHT22;29398;45.328;5.558;2024-03-02T05:00:44;6.70;99.90
7738;DHT22;29398;45.328;5.558;2024-03-02T05:01:47;6.70;99.90
7738;DHT22;29398;45.328;5.558;2024-03-02T05:02:49;6.70;99.90
7738;DHT22;29398;45.328;5.558;2024-03-02T05:03:50;6.60;99.90
7738;DHT22;29398;45.328;5.558;2024-03-02T05:04:51;6.50;99.90
7738;DHT22;29398;45.328;5.558;2024-03-02T05:05:53;6.50;99.90
7738;DHT22;29398;45.328;5.558;2024-03-02T05:06:54;6.50;99.90
7738;DHT22;29398;45.328;5.558;2024-03-02T05:07:58;6.40;99.90
7738;DHT22;29398;45.328;5.558;2024-03-02T05:08:59;6.40;99.90
7738;DHT22;29398;45.328;5.558;2024-03-02T05:10:00;6.50;99.90
7738;DHT22;29398;45.328;5.558;2024-03-02T05:11:02;6.50;99.90
7738;DHT22;29398;45.328;5.558;2024-03-02T05:12:20;6.50;99.90
7738;DHT22;29398;45.328;5.558;2024-03-02T05:13:48;6.50;99.90
7738;DHT22;29398;45.328;5.558;2024-03-02T05:14:48;6.50;99.90
7738;DHT22;29398;45.328;5.558;2024-03-02T05:15:50;6.50;99.90
7738;DHT22;29398;45.328;5.558;2024-03-02T05:16:51;6.50;99.90
7738;DHT22;29398;45.328;5.558;2024-03-02T05:17:53;6.50;99.90
7738;DHT22;29398;45.328;5.558;2024-03-02T05:18:54;6.40;99.90
7738;DHT22;29398;45.328;5.558;2024-03-02T05:19:56;6.50;99.90
7738;DHT22;29398;45.328;5.558;2024-03-02T05:20:57;6.50;99.90
7738;DHT22;29398;45.328;5.558;2024-03-02T05:22:00;6.50;99.90
7738;DHT22;29398;45.328;5.558;2024-03-02T05:23:01;6.50;99.90
7738;DHT22;29398;45.328;5.558;2024-03-02T05:24:03;6.50;99.90
7738;DHT22;29398;45.328;5.558;2024-03-02T05:25:05;6.50;99.90
7738;DHT22;29398;45.328;5.558;2024-03-02T05:26:07;6.60;99.90
7738;DHT22;29398;45.328;5.558;2024-03-02T05:27:08;6.60;99.90
7738;DHT22;29398;45.328;5.558;2024-03-02T05:28:12;6.60;99.90
7738;DHT22;29398;45.328;5.558;2024-03-02T05:29:13;6.70;99.90
7738;DHT22;29398;45.328;5.558;2024-03-02T05:30:15;6.70;99.90
7738;DHT22;29398;45.328;5.558;2024-03-02T05:31:16;6.70;99.90
7738;DHT22;29398;45.328;5.558;2024-03-02T05:32:18;6.70;99.90
7738;DHT22;29398;45.328;5.558;2024-03-02T05:33:19;6.80;99.90
7738;DHT22;29398;45.328;5.558;2024-03-02T05:34:23;6.80;99.90
7738;DHT22;29398;45.328;5.558;2024-03-02T05:35:24;6.80;99.90
7738;DHT22;29398;45.328;5.558;2024-03-02T05:36:26;6.80;99.90
7738;DHT22;29398;45.328;5.558;2024-03-02T05:37:27;6.80;99.90
7738;DHT22;29398;45.328;5.558;2024-03-02T05:38:29;6.80;99.90
7738;DHT22;29398;45.328;5.558;2024-03-02T05:39:30;6.80;99.90
7738;DHT22;29398;45.328;5.558;2024-03-02T05:40:32;6.90;99.90
7738;DHT22;29398;45.328;5.558;2024-03-02T05:41:33;6.80;99.90
7738;DHT22;29398;45.328;5.558;2024-03-02T05:42:35;6.90;99.90
7738;DHT22;29398;45.328;5.558;2024-03-02T05:43:38;6.90;99.90
7738;DHT22;29398;45.328;5.558;2024-03-02T05:44:40;6.80;99.90
7738;DHT22;29398;45.328;5.558;2024-03-02T05:45:41;6.90;99.90
7738;DHT22;29398;45.328;5.558;2024-03-02T05:46:43;6.90;99.90
7738;DHT22;29398;45.328;5.558;2024-03-02T05:47:44;6.90;99.90
7738;DHT22;29398;45.328;5.558;2024-03-02T05:48:46;6.90;99.90
7738;DHT22;29398;45.328;5.558;2024-03-02T05:49:47;7.00;99.90
7738;DHT22;29398;45.328;5.558;2024-03-02T05:50:49;6.90;99.90
7738;DHT22;29398;45.328;5.558;2024-03-02T05:51:50;6.90;99.90
7738;DHT22;29398;45.328;5.558;2024-03-02T05:52:52;6.90;99.90
7738;DHT22;29398;45.328;5.558;2024-03-02T05:53:53;6.90;99.90
7738;DHT22;29398;45.328;5.558;2024-03-02T05:54:55;6.90;99.90
7738;DHT22;29398;45.328;5.558;2024-03-02T05:55:56;6.90;99.90
7738;DHT22;29398;45.328;5.558;2024-03-02T05:56:57;7.00;99.90
7738;DHT22;29398;45.328;5.558;2024-03-02T05:58:17;7.00;99.90
7738;DHT22;29398;45.328;5.558;2024-03-02T05:59:27;7.00;99.90
7738;DHT22;29398;45.328;5.558;2024-03-02T06:00:29;7.10;99.90
7738;DHT22;29398;45.328;5.558;2024-03-02T06:01:31;7.10;99.90
7738;DHT22;29398;45.328;5.558;2024-03-02T06:02:33;7.10;99.90
7738;DHT22;29398;45.328;5.558;2024-03-02T06:03:35;7.20;99.90
7738;DHT22;29398;45.328;5.558;2024-03-02T06:04:37;7.20;99.90
7738;DHT22;29398;45.328;5.558;2024-03-02T06:05:38;7.20;99.90
7738;DHT22;29398;45.328;5.558;2024-03-02T06:06:41;7.20;99.90
7738;DHT22;29398;45.328;5.558;2024-03-02T06:07:43;7.30;99.90
7738;DHT22;29398;45.328;5.558;2024-03-02T06:08:45;7.30;99.90
7738;DHT22;29398;45.328;5.558;2024-03-02T06:09:46;7.40;99.90
7738;DHT22;29398;45.328;5.558;2024-03-02T06:10:49;7.40;99.90
7738;DHT22;29398;45.328;5.558;2024-03-02T06:11:50;7.40;99.90
7738;DHT22;29398;45.328;5.558;2024-03-02T06:12:52;7.40;99.90
7738;DHT22;29398;45.328;5.558;2024-03-02T06:13:53;7.40;99.90
7738;DHT22;29398;45.328;5.558;2024-03-02T06:14:56;7.50;99.40
7738;DHT22;29398;45.328;5.558;2024-03-02T06:15:57;7.50;99.20
7738;DHT22;29398;45.328;5.558;2024-03-02T06:16:59;7.50;99.30
7738;DHT22;29398;45.328;5.558;2024-03-02T06:18:00;7.50;99.30
7738;DHT22;29398;45.328;5.558;2024-03-02T06:19:02;7.50;99.00
7738;DHT22;29398;45.328;5.558;2024-03-02T06:20:04;7.50;99.30
7738;DHT22;29398;45.328;5.558;2024-03-02T06:21:08;7.60;98.80
7738;DHT22;29398;45.328;5.558;2024-03-02T06:22:09;7.50;99.10
7738;DHT22;29398;45.328;5.558;2024-03-02T06:23:11;7.40;99.20
7738;DHT22;29398;45.328;5.558;2024-03-02T06:24:12;7.20;99.50
7738;DHT22;29398;45.328;5.558;2024-03-02T06:25:14;7.20;99.70
7738;DHT22;29398;45.328;5.558;2024-03-02T06:26:15;7.10;99.90
7738;DHT22;29398;45.328;5.558;2024-03-02T06:27:17;7.10;99.90
7738;DHT22;29398;45.328;5.558;2024-03-02T06:28:18;7.10;99.90
7738;DHT22;29398;45.328;5.558;2024-03-02T06:29:21;7.10;99.90
7738;DHT22;29398;45.328;5.558;2024-03-02T06:30:23;7.20;99.90
7738;DHT22;29398;45.328;5.558;2024-03-02T06:31:26;7.20;99.90
7738;DHT22;29398;45.328;5.558;2024-03-02T06:32:27;7.30;99.90
7738;DHT22;29398;45.328;5.558;2024-03-02T06:33:28;7.30;99.50
7738;DHT22;29398;45.328;5.558;2024-03-02T06:34:29;7.20;99.90
7738;DHT22;29398;45.328;5.558;2024-03-02T06:35:31;7.10;99.90
7738;DHT22;29398;45.328;5.558;2024-03-02T06:36:32;7.00;99.90
7738;DHT22;29398;45.328;5.558;2024-03-02T06:37:34;6.90;99.90
7738;DHT22;29398;45.328;5.558;2024-03-02T06:38:36;6.90;99.90
7738;DHT22;29398;45.328;5.558;2024-03-02T06:39:38;6.90;99.90
7738;DHT22;29398;45.328;5.558;2024-03-02T06:40:39;6.90;99.90
7738;DHT22;29398;45.328;5.558;2024-03-02T06:41:41;6.90;99.90
7738;DHT22;29398;45.328;5.558;2024-03-02T06:42:43;6.90;99.90
7738;DHT22;29398;45.328;5.558;2024-03-02T06:43:45;7.00;99.90
7738;DHT22;29398;45.328;5.558;2024-03-02T06:44:46;7.00;99.90
7738;DHT22;29398;45.328;5.558;2024-03-02T06:45:48;7.00;99.90
7738;DHT22;29398;45.328;5.558;2024-03-02T06:46:50;7.10;99.90